createdAt,value
2019-06-15T00:02:08.763Z,98.00
2019-06-15T00:04:37.230Z,98.00
2019-06-15T00:07:05.683Z,97.90
2019-06-15T00:09:34.024Z,97.90
2019-06-15T00:12:02.595Z,97.60
2019-06-15T00:14:31.013Z,97.40
2019-06-15T00:16:59.448Z,97.70
2019-06-15T00:19:27.848Z,97.90
2019-06-15T00:21:56.363Z,97.50
2019-06-15T00:24:35.005Z,97.20
2019-06-15T00:26:55.108Z,97.40
2019-06-15T00:29:23.499Z,97.30
2019-06-15T00:31:52.763Z,97.30
2019-06-15T00:34:21.096Z,97.30
2019-06-15T00:36:49.472Z,97.10
2019-06-15T00:39:17.789Z,97.20
2019-06-15T00:41:46.284Z,96.90
2019-06-15T00:44:14.664Z,97.00
2019-06-15T00:46:43.092Z,96.70
2019-06-15T00:49:11.510Z,96.40
2019-06-15T00:51:39.949Z,96.30
2019-06-15T00:54:08.244Z,96.30
2019-06-15T00:56:36.716Z,96.40
2019-06-15T00:59:05.178Z,96.60
2019-06-15T01:01:35.437Z,97.10
2019-06-15T01:04:03.899Z,97.20
2019-06-15T01:06:32.262Z,97.40
2019-06-15T01:09:00.665Z,96.90
2019-06-15T01:11:29.052Z,96.60
2019-06-15T01:13:57.514Z,96.70
2019-06-15T01:16:26.010Z,96.60
2019-06-15T01:18:54.383Z,96.30
2019-06-15T01:21:22.786Z,95.90
2019-06-15T01:23:51.223Z,96.10
2019-06-15T01:26:19.682Z,96.10
2019-06-15T01:28:49.380Z,95.90
2019-06-15T01:31:17.819Z,95.40
2019-06-15T01:33:47.195Z,96.00
2019-06-15T01:36:15.633Z,96.10
2019-06-15T01:38:43.964Z,95.90
2019-06-15T01:41:12.374Z,95.30
2019-06-15T01:43:40.783Z,95.60
2019-06-15T01:46:09.181Z,95.70
2019-06-15T01:48:37.623Z,95.90
2019-06-15T01:51:07.427Z,95.90
2019-06-15T01:53:35.695Z,95.80
2019-06-15T01:56:04.339Z,95.80
2019-06-15T01:58:32.665Z,95.90
2019-06-15T02:01:01.297Z,96.10
2019-06-15T02:03:29.820Z,96.20
2019-06-15T02:05:58.399Z,96.20
2019-06-15T02:08:27.905Z,96.30
2019-06-15T02:10:56.657Z,96.00
2019-06-15T02:13:26.130Z,96.30
2019-06-15T02:15:54.727Z,96.60
2019-06-15T02:18:23.165Z,97.40
2019-06-15T02:20:52.451Z,97.60
2019-06-15T02:23:20.852Z,97.50
2019-06-15T02:25:49.426Z,97.60
2019-06-15T02:28:17.892Z,97.60
2019-06-15T02:30:46.469Z,97.60
2019-06-15T02:33:15.077Z,97.60
2019-06-15T02:35:44.601Z,97.10
2019-06-15T02:38:13.079Z,97.00
2019-06-15T02:40:41.650Z,97.00
2019-06-15T02:43:10.046Z,97.00
2019-06-15T02:45:38.591Z,96.90
2019-06-15T02:48:07.129Z,96.70
2019-06-15T02:50:36.171Z,96.50
2019-06-15T02:53:04.638Z,97.10
2019-06-15T02:55:33.326Z,97.60
2019-06-15T02:58:01.919Z,98.20
2019-06-15T03:00:49.890Z,98.30
2019-06-15T03:03:18.475Z,98.40
2019-06-15T03:05:47.013Z,99.00
2019-06-15T03:08:16.046Z,97.80
2019-06-15T03:10:45.162Z,98.30
2019-06-15T03:13:14.092Z,98.60
2019-06-15T03:15:42.563Z,98.90
2019-06-15T03:18:12.940Z,98.90
2019-06-15T03:20:41.391Z,98.50
2019-06-15T03:23:09.789Z,98.00
2019-06-15T03:25:38.263Z,98.00
2019-06-15T03:28:06.904Z,98.50
2019-06-15T03:30:35.565Z,98.00
2019-06-15T03:33:04.521Z,98.50
2019-06-15T03:35:33.030Z,98.70
2019-06-15T03:38:01.471Z,98.40
2019-06-15T03:40:30.868Z,98.00
2019-06-15T03:42:59.214Z,97.80
2019-06-15T03:45:27.708Z,97.50
2019-06-15T03:47:56.082Z,97.30
2019-06-15T03:50:24.672Z,97.00
2019-06-15T03:52:53.104Z,97.10
2019-06-15T03:55:21.597Z,96.70
2019-06-15T03:57:50.045Z,96.80
2019-06-15T04:00:45.391Z,97.30
2019-06-15T04:03:15.020Z,98.30
2019-06-15T04:05:43.707Z,97.70
2019-06-15T04:08:12.328Z,98.50
2019-06-15T04:10:40.735Z,97.00
2019-06-15T04:13:09.346Z,97.00
2019-06-15T04:15:37.849Z,97.70
2019-06-15T04:18:06.439Z,97.50
2019-06-15T04:20:34.984Z,97.80
2019-06-15T04:23:03.475Z,98.20
2019-06-15T04:25:31.905Z,98.70
2019-06-15T04:28:01.366Z,98.40
2019-06-15T04:30:29.838Z,98.50
2019-06-15T04:32:58.485Z,98.80
2019-06-15T04:35:27.025Z,98.70
2019-06-15T04:37:56.403Z,98.60
2019-06-15T04:40:24.814Z,98.70
2019-06-15T04:42:54.377Z,99.10
2019-06-15T04:45:22.884Z,99.00
2019-06-15T04:47:51.266Z,99.30
2019-06-15T04:50:19.737Z,99.00
2019-06-15T04:52:48.125Z,98.40
2019-06-15T04:55:16.756Z,98.70
2019-06-15T04:57:45.219Z,98.80
2019-06-15T05:00:15.347Z,98.80
2019-06-15T05:02:43.759Z,98.40
2019-06-15T05:05:12.911Z,98.60
2019-06-15T05:07:41.437Z,99.10
2019-06-15T05:10:15.348Z,99.20
2019-06-15T05:12:43.739Z,99.50
2019-06-15T05:15:12.280Z,99.50
2019-06-15T05:17:41.184Z,99.60
2019-06-15T05:20:09.703Z,99.20
2019-06-15T05:22:38.088Z,99.10
2019-06-15T05:25:07.266Z,99.00
2019-06-15T05:27:35.819Z,98.90
2019-06-15T05:30:05.129Z,98.80
2019-06-15T05:32:33.493Z,98.80
2019-06-15T05:35:01.849Z,98.50
2019-06-15T05:37:30.320Z,98.50
2019-06-15T05:39:58.836Z,98.10
2019-06-15T05:42:27.259Z,97.90
2019-06-15T05:44:55.774Z,97.70
2019-06-15T05:47:24.209Z,98.10
2019-06-15T05:49:52.773Z,98.10
2019-06-15T05:52:21.176Z,97.40
2019-06-15T05:54:49.638Z,97.80
2019-06-15T05:57:21.702Z,97.50
2019-06-15T05:59:48.221Z,97.70
2019-06-15T06:02:16.740Z,97.70
2019-06-15T06:04:45.244Z,97.70
2019-06-15T06:07:13.639Z,97.60
2019-06-15T06:14:26.611Z,97.80
2019-06-15T06:17:19.273Z,96.70
2019-06-15T06:19:49.097Z,96.50
2019-06-15T06:22:17.523Z,96.70
2019-06-15T06:24:45.975Z,97.10
2019-06-15T06:27:14.590Z,96.80
2019-06-15T06:29:42.973Z,96.90
2019-06-15T06:32:11.482Z,96.50
2019-06-15T06:34:39.978Z,96.60
2019-06-15T06:37:08.538Z,96.30
2019-06-15T06:39:37.808Z,96.40
2019-06-15T06:42:06.485Z,96.30
2019-06-15T06:44:34.844Z,96.00
2019-06-15T06:47:03.210Z,96.10
2019-06-15T06:49:35.335Z,96.30
2019-06-15T06:52:03.791Z,96.50
2019-06-15T06:54:32.195Z,96.60
2019-06-15T06:57:00.726Z,96.50
2019-06-15T06:59:29.161Z,96.10
2019-06-15T07:01:57.453Z,96.20
2019-06-15T07:04:25.866Z,95.90
2019-06-15T07:06:54.212Z,95.50
2019-06-15T07:09:23.536Z,95.20
2019-06-15T07:11:53.631Z,95.30
2019-06-15T07:14:23.373Z,94.20
2019-06-15T07:16:51.983Z,94.10
2019-06-15T07:19:20.352Z,94.20
2019-06-15T07:21:52.064Z,93.40
2019-06-15T07:24:20.472Z,93.70
2019-06-15T07:26:52.195Z,94.10
2019-06-15T07:29:22.335Z,94.00
2019-06-15T07:31:50.703Z,94.20
2019-06-15T07:34:20.362Z,94.20
2019-06-15T07:36:50.263Z,94.20
2019-06-15T07:39:21.244Z,94.50
2019-06-15T07:41:51.990Z,94.60
2019-06-15T07:44:23.718Z,94.40
2019-06-15T07:46:52.064Z,94.20
2019-06-15T07:49:20.557Z,94.60
2019-06-15T07:51:48.981Z,93.90
2019-06-15T07:54:17.425Z,94.10
2019-06-15T07:56:45.906Z,94.30
2019-06-15T07:59:14.322Z,94.20
2019-06-15T08:01:42.777Z,94.90
2019-06-15T08:04:11.193Z,93.90
2019-06-15T08:06:39.517Z,94.10
2019-06-15T08:09:07.915Z,94.50
2019-06-15T08:11:36.391Z,95.00
2019-06-15T08:14:05.076Z,94.70
2019-06-15T08:16:33.447Z,94.40
2019-06-15T08:19:01.798Z,94.40
2019-06-15T08:21:30.281Z,94.10
2019-06-15T08:23:58.576Z,94.20
2019-06-15T08:26:26.896Z,94.80
2019-06-15T08:28:55.398Z,94.60
2019-06-15T08:31:24.042Z,94.30
2019-06-15T08:33:55.573Z,94.50
2019-06-15T08:36:23.953Z,94.30
2019-06-15T08:38:53.353Z,94.40
2019-06-15T08:41:21.798Z,94.10
2019-06-15T08:43:50.202Z,93.80
2019-06-15T08:46:18.640Z,94.20
2019-06-15T08:48:46.943Z,94.00
2019-06-15T08:51:15.350Z,93.60
2019-06-15T08:53:43.647Z,94.00
2019-06-15T08:56:12.060Z,93.60
2019-06-15T08:58:54.589Z,94.40
2019-06-15T09:01:10.641Z,93.90
2019-06-15T09:03:40.168Z,93.50
2019-06-15T09:06:08.510Z,93.20
2019-06-15T09:08:36.900Z,93.80
2019-06-15T09:11:05.380Z,92.70
2019-06-15T09:13:33.788Z,93.50
2019-06-15T09:16:02.269Z,93.40
2019-06-15T09:18:32.024Z,93.10
2019-06-15T09:21:02.272Z,93.10
2019-06-15T09:23:32.398Z,92.70
2019-06-15T09:26:02.517Z,92.90
2019-06-15T09:28:32.257Z,93.00
2019-06-15T09:31:02.340Z,92.60
2019-06-15T09:33:32.438Z,92.80
2019-06-15T09:36:02.278Z,92.90
2019-06-15T09:38:31.730Z,92.70
2019-06-15T09:41:00.119Z,92.40
2019-06-15T09:43:28.568Z,93.10
2019-06-15T09:45:57.064Z,93.00
2019-06-15T09:48:25.522Z,92.30
2019-06-15T09:50:53.919Z,93.60
2019-06-15T09:53:22.456Z,92.30
2019-06-15T09:55:50.803Z,92.90
2019-06-15T09:58:19.136Z,92.00
2019-06-15T10:00:47.762Z,93.30
2019-06-15T10:03:16.117Z,92.90
2019-06-15T10:05:44.815Z,92.30
2019-06-15T10:08:16.139Z,93.30
2019-06-15T10:10:45.971Z,93.70
2019-06-15T10:13:14.908Z,92.90
2019-06-15T10:15:46.005Z,94.10
2019-06-15T10:18:15.911Z,93.40
2019-06-15T10:20:45.857Z,94.10
2019-06-15T10:23:15.860Z,94.30
2019-06-15T10:25:45.722Z,93.60
2019-06-15T10:28:15.742Z,93.10
2019-06-15T10:30:45.455Z,94.20
2019-06-15T10:33:17.001Z,93.80
2019-06-15T10:35:48.583Z,93.40
2019-06-15T10:38:19.431Z,95.20
2019-06-15T10:40:47.900Z,93.80
2019-06-15T10:43:17.194Z,94.40
2019-06-15T10:45:45.621Z,93.80
2019-06-15T10:48:13.968Z,93.60
2019-06-15T10:50:42.317Z,93.60
2019-06-15T10:53:10.782Z,93.60
2019-06-15T10:55:39.112Z,94.30
2019-06-15T10:58:07.438Z,93.70
2019-06-15T11:00:35.855Z,94.10
2019-06-15T11:03:04.851Z,94.20
2019-06-15T11:05:33.346Z,93.80
2019-06-15T11:08:01.864Z,92.60
2019-06-15T11:10:56.359Z,94.10
2019-06-15T11:13:27.208Z,93.50
2019-06-15T11:15:56.449Z,93.20
2019-06-15T11:18:26.297Z,93.90
2019-06-15T11:20:54.648Z,93.40
2019-06-15T11:23:23.314Z,92.90
2019-06-15T11:25:51.786Z,92.70
2019-06-15T11:28:20.324Z,92.90
2019-06-15T11:30:48.659Z,92.90
2019-06-15T11:33:17.176Z,93.30
2019-06-15T11:35:46.173Z,93.20
2019-06-15T11:38:17.973Z,92.40
2019-06-15T11:40:49.984Z,92.80
2019-06-15T11:43:19.360Z,91.50
2019-06-15T11:45:48.048Z,92.80
2019-06-15T11:48:16.703Z,92.90
2019-06-15T11:50:45.092Z,93.20
2019-06-15T11:53:13.504Z,92.00
2019-06-15T11:55:42.335Z,93.00
2019-06-15T11:58:12.347Z,92.00
2019-06-15T12:00:42.472Z,93.30
2019-06-15T12:03:13.374Z,92.50
2019-06-15T12:05:41.748Z,92.80
2019-06-15T12:08:10.208Z,93.40
2019-06-15T12:10:38.575Z,92.70
2019-06-15T12:13:08.192Z,92.40
2019-06-15T12:15:36.683Z,92.90
2019-06-15T12:18:05.170Z,92.30
2019-06-15T12:20:33.689Z,91.60
2019-06-15T12:23:02.171Z,92.00
2019-06-15T12:25:30.722Z,92.20
2019-06-15T12:27:59.169Z,91.50
2019-06-15T12:30:46.179Z,91.90
2019-06-15T12:33:11.269Z,92.00
2019-06-15T12:35:40.811Z,92.70
2019-06-15T12:38:10.173Z,91.40
2019-06-15T12:40:38.566Z,93.00
2019-06-15T12:43:07.047Z,93.20
2019-06-15T12:45:35.491Z,91.20
2019-06-15T12:48:04.133Z,91.20
2019-06-15T12:50:32.728Z,92.00
2019-06-15T12:53:01.200Z,92.20
2019-06-15T12:55:30.352Z,91.40
2019-06-15T12:57:58.833Z,92.50
2019-06-15T13:00:33.594Z,92.40
2019-06-15T13:03:01.953Z,93.10
2019-06-15T13:05:30.314Z,92.80
2019-06-15T13:08:00.212Z,92.50
2019-06-15T13:10:28.606Z,93.00
2019-06-15T13:12:56.953Z,92.70
2019-06-15T13:15:25.527Z,93.10
2019-06-15T13:17:53.919Z,93.20
2019-06-15T13:20:22.593Z,93.20
2019-06-15T13:22:51.061Z,93.20
2019-06-15T13:25:21.497Z,93.60
2019-06-15T13:27:49.825Z,93.00
2019-06-15T13:30:22.095Z,92.50
2019-06-15T13:32:50.454Z,93.30
2019-06-15T13:35:18.958Z,92.70
2019-06-15T13:37:50.818Z,92.70
2019-06-15T13:40:21.243Z,93.30
2019-06-15T13:42:52.437Z,93.40
2019-06-15T13:45:23.921Z,93.50
2019-06-15T13:47:52.471Z,92.40
2019-06-15T13:50:24.204Z,91.90
2019-06-15T13:52:52.777Z,92.60
2019-06-15T13:55:22.619Z,92.20
2019-06-15T13:57:51.214Z,93.40
2019-06-15T14:00:19.936Z,92.80
2019-06-15T14:02:48.415Z,92.00
2019-06-15T14:05:20.438Z,93.20
2019-06-15T14:07:48.809Z,92.40
2019-06-15T14:10:17.372Z,91.70
2019-06-15T14:12:45.762Z,91.60
2019-06-15T14:15:14.793Z,91.80
2019-06-15T14:17:43.165Z,91.80
2019-06-15T14:20:12.401Z,91.80
2019-06-15T14:22:40.660Z,92.30
2019-06-15T14:25:09.368Z,90.00
2019-06-15T14:27:37.771Z,90.30
2019-06-15T14:30:06.743Z,90.90
2019-06-15T14:32:38.577Z,90.90
2019-06-15T14:35:10.605Z,91.00
2019-06-15T14:37:39.057Z,90.30
2019-06-15T14:40:07.853Z,90.00
2019-06-15T14:42:36.345Z,90.70
2019-06-15T14:45:05.610Z,90.00
2019-06-15T14:47:37.662Z,88.00
2019-06-15T14:50:06.425Z,86.00
2019-06-15T14:52:34.954Z,86.80
2019-06-15T14:55:03.600Z,88.50
2019-06-15T14:57:36.150Z,85.10
2019-06-15T15:00:08.618Z,86.70
2019-06-15T15:02:37.271Z,84.50
2019-06-15T15:05:06.861Z,84.60
2019-06-15T15:07:36.811Z,84.30
2019-06-15T15:10:07.378Z,85.30
2019-06-15T15:12:41.663Z,85.40
2019-06-15T15:15:10.198Z,82.60
2019-06-15T15:17:38.830Z,81.60
2019-06-15T15:20:09.344Z,83.90
2019-06-15T15:22:37.821Z,79.80
2019-06-15T15:25:07.086Z,82.20
2019-06-15T15:27:37.445Z,82.70
2019-06-15T15:30:08.145Z,82.80
2019-06-15T15:32:37.123Z,85.50
2019-06-15T15:35:06.607Z,85.80
2019-06-15T15:37:37.212Z,85.20
2019-06-15T15:40:08.878Z,84.60
2019-06-15T15:42:37.439Z,85.00
2019-06-15T15:45:07.162Z,84.60
2019-06-15T15:47:36.253Z,84.00
2019-06-15T15:50:06.433Z,83.90
2019-06-15T15:52:37.164Z,85.00
2019-06-15T15:55:06.842Z,84.50
2019-06-15T15:57:36.274Z,85.10
2019-06-15T16:00:07.362Z,84.70
2019-06-15T16:02:48.104Z,84.40
2019-06-15T16:05:06.454Z,85.80
2019-06-15T16:07:36.408Z,85.80
2019-06-15T16:10:06.430Z,85.80
2019-06-15T16:12:36.134Z,85.40
2019-06-15T16:15:07.286Z,85.80
2019-06-15T16:17:37.226Z,87.40
2019-06-15T16:20:11.799Z,86.50
2019-06-15T16:22:40.092Z,86.70
2019-06-15T16:25:08.646Z,86.50
2019-06-15T16:27:37.223Z,87.40
2019-06-15T16:30:06.540Z,87.00
2019-06-15T16:32:37.204Z,87.30
2019-06-15T16:35:05.661Z,86.80
2019-06-15T16:37:34.071Z,86.10
2019-06-15T16:40:02.596Z,86.10
2019-06-15T16:42:31.218Z,87.00
2019-06-15T16:44:59.568Z,87.70
2019-06-15T16:47:29.071Z,87.40
2019-06-15T16:49:57.453Z,87.00
2019-06-15T16:52:26.967Z,87.50
2019-06-15T16:54:55.564Z,87.10
2019-06-15T16:57:26.495Z,87.90
2019-06-15T16:59:56.078Z,87.80
2019-06-15T17:02:26.055Z,89.00
2019-06-15T17:04:56.854Z,88.50
2019-06-15T17:07:26.253Z,88.70
2019-06-15T17:09:56.762Z,89.70
2019-06-15T17:12:26.002Z,89.30
2019-06-15T17:14:54.712Z,90.30
2019-06-15T17:17:23.115Z,93.20
2019-06-15T17:19:52.176Z,93.70
2019-06-15T17:22:21.451Z,93.80
2019-06-15T17:24:50.169Z,94.40
2019-06-15T17:27:18.644Z,94.10
2019-06-15T17:29:47.027Z,93.80
2019-06-15T17:32:17.045Z,94.00
2019-06-15T17:34:47.010Z,94.60
2019-06-15T17:37:17.229Z,94.70
2019-06-15T17:39:46.676Z,95.10
2019-06-15T17:42:16.413Z,95.00
2019-06-15T17:44:46.149Z,95.20
2019-06-15T17:47:16.886Z,95.60
2019-06-15T17:49:46.847Z,95.90
2019-06-15T17:52:16.905Z,96.10
2019-06-15T17:54:46.708Z,96.20
2019-06-15T17:57:15.502Z,96.50
2019-06-15T17:59:44.088Z,97.00
2019-06-15T18:02:12.718Z,97.30
2019-06-15T18:04:41.162Z,97.60
2019-06-15T18:07:10.675Z,97.90
2019-06-15T18:09:39.082Z,98.20
2019-06-15T18:12:07.654Z,98.20
2019-06-15T18:14:36.762Z,98.50
2019-06-15T18:17:07.288Z,98.70
2019-06-15T18:19:36.949Z,98.70
2019-06-15T18:22:07.234Z,98.70
2019-06-15T18:24:37.256Z,99.00
2019-06-15T18:27:08.975Z,99.20
2019-06-15T18:29:36.812Z,99.40
2019-06-15T18:32:06.412Z,99.40
2019-06-15T18:34:36.821Z,99.40
2019-06-15T18:37:07.596Z,99.70
2019-06-15T18:39:36.915Z,99.90
2019-06-15T18:42:07.726Z,99.90
2019-06-15T18:44:36.650Z,99.90
2019-06-15T18:47:07.103Z,99.90
2019-06-15T18:49:36.298Z,99.90
2019-06-15T18:52:06.157Z,99.90
2019-06-15T18:54:36.369Z,99.90
2019-06-15T18:57:07.267Z,99.90
2019-06-15T18:59:36.567Z,99.90
2019-06-15T19:02:06.727Z,99.90
2019-06-15T19:04:35.273Z,99.90
2019-06-15T19:07:03.694Z,99.90
2019-06-15T19:09:32.036Z,99.90
2019-06-15T19:12:00.526Z,99.90
2019-06-15T19:14:28.912Z,99.90
2019-06-15T19:16:57.390Z,99.90
2019-06-15T19:19:26.569Z,99.90
2019-06-15T19:21:57.189Z,99.90
2019-06-15T19:24:26.039Z,99.90
2019-06-15T19:26:54.655Z,99.90
2019-06-15T19:29:23.297Z,99.90
2019-06-15T19:31:54.185Z,99.90
2019-06-15T19:34:21.972Z,99.90
2019-06-15T19:36:50.379Z,99.90
2019-06-15T19:39:18.709Z,99.90
2019-06-15T19:41:47.217Z,99.90
2019-06-15T19:44:16.333Z,99.90
2019-06-15T19:46:47.460Z,99.90
2019-06-15T19:49:17.104Z,99.90
2019-06-15T19:51:47.272Z,99.90
2019-06-15T19:54:15.986Z,99.90
2019-06-15T19:56:46.527Z,99.90
2019-06-15T19:59:16.933Z,99.90
2019-06-15T20:01:46.829Z,99.90
2019-06-15T20:04:17.010Z,99.90
2019-06-15T20:06:45.998Z,99.90
2019-06-15T20:09:14.682Z,99.90
2019-06-15T20:11:42.970Z,99.90
2019-06-15T20:14:11.337Z,99.90
2019-06-15T20:16:39.905Z,99.90
2019-06-15T20:19:08.249Z,99.90
2019-06-15T20:21:37.451Z,99.90
2019-06-15T20:24:06.399Z,99.90
2019-06-15T20:26:36.577Z,99.90
2019-06-15T20:29:07.093Z,99.90
2019-06-15T20:31:36.993Z,99.90
2019-06-15T20:34:05.437Z,99.90
2019-06-15T20:36:36.399Z,99.90
2019-06-15T20:39:07.129Z,99.90
2019-06-15T20:41:37.645Z,99.90
2019-06-15T20:44:06.031Z,99.90
2019-06-15T20:46:36.913Z,99.90
2019-06-15T20:49:06.553Z,99.90
2019-06-15T20:51:37.111Z,99.90
2019-06-15T20:54:06.964Z,99.90
2019-06-15T20:56:37.270Z,99.90
2019-06-15T20:59:06.379Z,99.90
2019-06-15T21:01:36.969Z,99.90
2019-06-15T21:04:07.188Z,99.90
2019-06-15T21:06:37.083Z,99.90
2019-06-15T21:09:06.694Z,99.80
2019-06-15T21:11:36.236Z,99.60
2019-06-15T21:14:05.103Z,99.50
2019-06-15T21:16:33.501Z,99.60
2019-06-15T21:19:02.061Z,99.50
2019-06-15T21:21:30.536Z,99.60
2019-06-15T21:24:00.033Z,99.80
2019-06-15T21:26:28.286Z,99.90
2019-06-15T21:28:56.722Z,99.90
2019-06-15T21:31:26.188Z,99.90
2019-06-15T21:33:56.114Z,99.90
2019-06-15T21:36:26.110Z,99.90
2019-06-15T21:38:56.305Z,99.90
2019-06-15T21:41:26.173Z,99.90
2019-06-15T21:43:56.497Z,99.90
2019-06-15T21:46:26.672Z,99.90
2019-06-15T21:48:56.355Z,99.90
2019-06-15T21:51:27.084Z,99.90
2019-06-15T21:53:56.064Z,99.90
2019-06-15T21:56:28.578Z,99.90
2019-06-15T21:58:56.534Z,99.90
2019-06-15T22:01:32.367Z,99.90
2019-06-15T22:04:02.004Z,99.90
2019-06-15T22:06:31.165Z,99.90
2019-06-15T22:08:59.668Z,99.90
2019-06-15T22:11:28.220Z,99.90
2019-06-15T22:13:57.169Z,99.90
2019-06-15T22:16:27.540Z,99.90
2019-06-15T22:18:56.254Z,99.90
2019-06-15T22:21:27.424Z,99.90
2019-06-15T22:23:55.911Z,99.90
2019-06-15T22:26:26.637Z,99.90
2019-06-15T22:28:56.772Z,99.90
2019-06-15T22:31:25.017Z,99.90
2019-06-15T22:33:53.364Z,99.90
2019-06-15T22:36:25.343Z,99.90
2019-06-15T22:38:51.929Z,99.90
2019-06-15T22:41:20.251Z,99.90
2019-06-15T22:43:48.695Z,99.90
2019-06-15T22:46:17.087Z,99.90
2019-06-15T22:48:46.985Z,99.90
2019-06-15T22:51:16.858Z,99.90
2019-06-15T22:53:47.340Z,99.90
2019-06-15T22:56:17.045Z,99.90
2019-06-15T22:58:46.197Z,99.90
2019-06-15T23:01:16.829Z,99.90
2019-06-15T23:03:46.603Z,99.90
2019-06-15T23:06:16.155Z,99.90
2019-06-15T23:08:47.080Z,99.90
2019-06-15T23:11:17.195Z,99.90
2019-06-15T23:13:46.285Z,99.90
2019-06-15T23:16:14.936Z,99.90
2019-06-15T23:18:43.390Z,99.90
2019-06-15T23:21:11.878Z,99.90
2019-06-15T23:23:40.222Z,99.90
2019-06-15T23:26:08.658Z,99.90
2019-06-15T23:28:37.122Z,99.90
2019-06-15T23:31:07.607Z,99.90
2019-06-15T23:33:35.612Z,99.90
2019-06-15T23:36:08.925Z,99.90
2019-06-15T23:38:37.752Z,99.90
2019-06-15T23:41:07.049Z,99.90
2019-06-15T23:43:36.212Z,99.90
2019-06-15T23:46:06.695Z,99.90
2019-06-15T23:48:36.446Z,99.90
2019-06-15T23:51:06.121Z,99.90
2019-06-15T23:53:36.743Z,99.90
2019-06-15T23:56:06.299Z,99.90
2019-06-15T23:58:37.052Z,99.90
